sensor_id;sensor_type;location;lat;lon;timestamp;pressure;altitude;pressure_sealevel;temperature;humidity
12722;BME280;6425;50.316;8.114;2023-12-29T00:00:00;988;;;7.6;81
12722;BME280;6425;50.316;8.114;2023-12-29T00:03:00;988;;;7.5;82.1
12722;BME280;6425;50.316;8.114;2023-12-29T00:06:01;988;;;7.4;82.3
12722;BME280;6425;50.316;8.114;2023-12-29T00:09:00;988;;;7.4;82.7
12722;BME280;6425;50.316;8.114;2023-12-29T00:12:00;988;;;7.4;83.2
12722;BME280;6425;50.316;8.114;2023-12-29T00:15:00;988;;;7.3;83.4
12722;BME280;6425;50.316;8.114;2023-12-29T00:18:00;988;;;7.6;81.3
12722;BME280;6425;50.316;8.114;2023-12-29T00:21:00;988;;;7.5;81.4
12722;BME280;6425;50.316;8.114;2023-12-29T00:24:00;988;;;7.4;81.6
12722;BME280;6425;50.316;8.114;2023-12-29T00:27:00;988;;;7.5;81
12722;BME280;6425;50.316;8.114;2023-12-29T00:30:00;988;;;7.4;81.3
12722;BME280;6425;50.316;8.114;2023-12-29T00:33:00;988;;;7.3;81.9
12722;BME280;6425;50.316;8.114;2023-12-29T00:36:00;988;;;7.2;82.1
12722;BME280;6425;50.316;8.114;2023-12-29T00:39:01;988;;;7.1;82.9
12722;BME280;6425;50.316;8.114;2023-12-29T00:42:00;988;;;7.4;81.3
12722;BME280;6425;50.316;8.114;2023-12-29T00:45:00;988;;;7.2;82
12722;BME280;6425;50.316;8.114;2023-12-29T00:48:00;988;;;7.5;80.1
12722;BME280;6425;50.316;8.114;2023-12-29T00:51:01;988;;;7.3;81.4
12722;BME280;6425;50.316;8.114;2023-12-29T00:54:00;988;;;7.3;81.6
12722;BME280;6425;50.316;8.114;2023-12-29T00:57:00;988;;;7.5;80.6
12722;BME280;6425;50.316;8.114;2023-12-29T01:00:00;988;;;7.4;80.6
12722;BME280;6425;50.316;8.114;2023-12-29T01:03:00;988;;;7.5;80.3
12722;BME280;6425;50.316;8.114;2023-12-29T01:06:00;988;;;7.4;80.3
12722;BME280;6425;50.316;8.114;2023-12-29T01:09:00;988;;;7.9;77.5
12722;BME280;6425;50.316;8.114;2023-12-29T01:12:00;988;;;7.9;77.1
12722;BME280;6425;50.316;8.114;2023-12-29T01:15:01;988;;;7.9;77
12722;BME280;6425;50.316;8.114;2023-12-29T01:18:00;988;;;7.8;77.6
12722;BME280;6425;50.316;8.114;2023-12-29T01:21:00;988;;;7.8;77.8
12722;BME280;6425;50.316;8.114;2023-12-29T01:24:00;988;;;7.9;77.1
12722;BME280;6425;50.316;8.114;2023-12-29T01:27:01;988;;;7.9;77.8
12722;BME280;6425;50.316;8.114;2023-12-29T01:30:00;988;;;7.8;78
12722;BME280;6425;50.316;8.114;2023-12-29T01:33:00;987;;;7.9;77.7
12722;BME280;6425;50.316;8.114;2023-12-29T01:36:00;987;;;8;77
12722;BME280;6425;50.316;8.114;2023-12-29T01:39:00;987;;;7.9;77.5
12722;BME280;6425;50.316;8.114;2023-12-29T01:42:00;987;;;8.1;77
12722;BME280;6425;50.316;8.114;2023-12-29T01:45:00;987;;;7.8;78
12722;BME280;6425;50.316;8.114;2023-12-29T01:48:00;987;;;7.8;78.6
12722;BME280;6425;50.316;8.114;2023-12-29T01:51:00;987;;;8;77.4
12722;BME280;6425;50.316;8.114;2023-12-29T01:54:00;987;;;7.9;78
12722;BME280;6425;50.316;8.114;2023-12-29T01:57:00;987;;;7.8;78.6
12722;BME280;6425;50.316;8.114;2023-12-29T02:00:00;987;;;7.7;79.2
12722;BME280;6425;50.316;8.114;2023-12-29T02:03:00;987;;;7.6;79
12722;BME280;6425;50.316;8.114;2023-12-29T02:06:00;987;;;7.5;80
12722;BME280;6425;50.316;8.114;2023-12-29T02:09:00;987;;;7.5;80.3
12722;BME280;6425;50.316;8.114;2023-12-29T02:12:00;987;;;7.5;80.4
12722;BME280;6425;50.316;8.114;2023-12-29T02:15:00;987;;;7.6;80.1
12722;BME280;6425;50.316;8.114;2023-12-29T02:18:01;987;;;7.5;80.5
12722;BME280;6425;50.316;8.114;2023-12-29T02:21:00;987;;;7.5;80.8
12722;BME280;6425;50.316;8.114;2023-12-29T02:24:00;987;;;7.6;80.4
12722;BME280;6425;50.316;8.114;2023-12-29T02:27:02;987;;;7.8;79.8
12722;BME280;6425;50.316;8.114;2023-12-29T02:30:02;987;;;7.8;79.7
12722;BME280;6425;50.316;8.114;2023-12-29T02:33:00;987;;;7.7;80.1
12722;BME280;6425;50.316;8.114;2023-12-29T02:36:00;987;;;7.9;79.7
12722;BME280;6425;50.316;8.114;2023-12-29T02:39:00;987;;;8.2;78.4
12722;BME280;6425;50.316;8.114;2023-12-29T02:42:00;987;;;8;79.3
12722;BME280;6425;50.316;8.114;2023-12-29T02:45:00;987;;;8;79.9
12722;BME280;6425;50.316;8.114;2023-12-29T02:48:00;987;;;8.1;79.6
12722;BME280;6425;50.316;8.114;2023-12-29T02:51:00;987;;;7.9;80.2
12722;BME280;6425;50.316;8.114;2023-12-29T02:54:00;987;;;7.9;80.4
12722;BME280;6425;50.316;8.114;2023-12-29T02:57:00;987;;;7.9;80.3
12722;BME280;6425;50.316;8.114;2023-12-29T03:00:00;987;;;8;80.7
12722;BME280;6425;50.316;8.114;2023-12-29T03:03:00;987;;;7.8;81.4
12722;BME280;6425;50.316;8.114;2023-12-29T03:06:00;987;;;8;81.2
12722;BME280;6425;50.316;8.114;2023-12-29T03:09:00;987;;;7.9;80.9
12722;BME280;6425;50.316;8.114;2023-12-29T03:12:00;987;;;7.9;81.5
12722;BME280;6425;50.316;8.114;2023-12-29T03:15:00;987;;;7.9;81.6
12722;BME280;6425;50.316;8.114;2023-12-29T03:18:00;987;;;8;81.1
12722;BME280;6425;50.316;8.114;2023-12-29T03:21:00;987;;;8;81.3
12722;BME280;6425;50.316;8.114;2023-12-29T03:24:00;987;;;7.8;81.7
12722;BME280;6425;50.316;8.114;2023-12-29T03:27:00;987;;;8;81.4
12722;BME280;6425;50.316;8.114;2023-12-29T03:30:00;987;;;8;81.7
12722;BME280;6425;50.316;8.114;2023-12-29T03:33:00;987;;;8.2;80.3
12722;BME280;6425;50.316;8.114;2023-12-29T03:36:00;987;;;8.1;80.6
12722;BME280;6425;50.316;8.114;2023-12-29T03:39:00;987;;;8.1;81
12722;BME280;6425;50.316;8.114;2023-12-29T03:42:00;987;;;8.1;81
12722;BME280;6425;50.316;8.114;2023-12-29T03:45:00;987;;;7.9;82.2
12722;BME280;6425;50.316;8.114;2023-12-29T03:48:00;987;;;8.1;81.7
12722;BME280;6425;50.316;8.114;2023-12-29T03:51:00;987;;;8.1;81.9
12722;BME280;6425;50.316;8.114;2023-12-29T03:54:00;987;;;8.3;80.8
12722;BME280;6425;50.316;8.114;2023-12-29T03:57:00;987;;;8.3;80.2
12722;BME280;6425;50.316;8.114;2023-12-29T04:00:00;987;;;8.4;79.7
12722;BME280;6425;50.316;8.114;2023-12-29T04:03:00;987;;;8.2;80.7
12722;BME280;6425;50.316;8.114;2023-12-29T04:06:00;987;;;8.2;81.1
12722;BME280;6425;50.316;8.114;2023-12-29T04:09:00;987;;;8.2;81.2
12722;BME280;6425;50.316;8.114;2023-12-29T04:12:00;987;;;8.5;79.5
12722;BME280;6425;50.316;8.114;2023-12-29T04:15:00;987;;;8.5;79.6
12722;BME280;6425;50.316;8.114;2023-12-29T04:18:00;987;;;8.4;79.7
12722;BME280;6425;50.316;8.114;2023-12-29T04:21:00;987;;;8.5;79.5
12722;BME280;6425;50.316;8.114;2023-12-29T04:24:00;987;;;8.5;79.6
12722;BME280;6425;50.316;8.114;2023-12-29T04:27:00;987;;;8.4;80.4
12722;BME280;6425;50.316;8.114;2023-12-29T04:30:00;987;;;8.5;79.5
12722;BME280;6425;50.316;8.114;2023-12-29T04:33:00;987;;;8.4;80
12722;BME280;6425;50.316;8.114;2023-12-29T04:36:00;987;;;8.4;79.9
12722;BME280;6425;50.316;8.114;2023-12-29T04:39:00;987;;;8.4;80.5
12722;BME280;6425;50.316;8.114;2023-12-29T04:42:00;987;;;8.4;80.3
12722;BME280;6425;50.316;8.114;2023-12-29T04:45:00;987;;;8.5;80
12722;BME280;6425;50.316;8.114;2023-12-29T04:48:00;987;;;8.4;81
12722;BME280;6425;50.316;8.114;2023-12-29T04:51:00;986;;;8.5;80.2
12722;BME280;6425;50.316;8.114;2023-12-29T04:54:00;986;;;8.3;81.1
12722;BME280;6425;50.316;8.114;2023-12-29T04:57:00;986;;;8.5;80.4
12722;BME280;6425;50.316;8.114;2023-12-29T05:00:00;986;;;8.5;79.9
12722;BME280;6425;50.316;8.114;2023-12-29T05:03:00;987;;;8.4;80.8
12722;BME280;6425;50.316;8.114;2023-12-29T05:06:00;987;;;8.3;81.2
12722;BME280;6425;50.316;8.114;2023-12-29T05:09:00;987;;;8.4;80.3
12722;BME280;6425;50.316;8.114;2023-12-29T05:12:00;987;;;8.5;80.2
12722;BME280;6425;50.316;8.114;2023-12-29T05:15:00;987;;;8.4;80.3
12722;BME280;6425;50.316;8.114;2023-12-29T05:18:00;987;;;8.3;80.8
12722;BME280;6425;50.316;8.114;2023-12-29T05:21:00;987;;;8.4;80.4
12722;BME280;6425;50.316;8.114;2023-12-29T05:24:00;987;;;8.3;80.9
12722;BME280;6425;50.316;8.114;2023-12-29T05:27:00;986;;;8.4;80.4
12722;BME280;6425;50.316;8.114;2023-12-29T05:30:00;987;;;8.3;81
12722;BME280;6425;50.316;8.114;2023-12-29T05:33:00;987;;;8.3;81
12722;BME280;6425;50.316;8.114;2023-12-29T05:36:05;987;;;8.3;81.2
12722;BME280;6425;50.316;8.114;2023-12-29T05:39:00;987;;;8.3;80.9
12722;BME280;6425;50.316;8.114;2023-12-29T05:42:00;987;;;8.3;80.9
12722;BME280;6425;50.316;8.114;2023-12-29T05:45:00;987;;;8.3;80.8
12722;BME280;6425;50.316;8.114;2023-12-29T05:48:00;987;;;8.2;81.6
12722;BME280;6425;50.316;8.114;2023-12-29T05:51:02;987;;;8.5;80.2
12722;BME280;6425;50.316;8.114;2023-12-29T05:54:00;987;;;8.3;81
12722;BME280;6425;50.316;8.114;2023-12-29T05:57:00;987;;;8.4;81.4
12722;BME280;6425;50.316;8.114;2023-12-29T06:00:00;987;;;8.3;81.7
12722;BME280;6425;50.316;8.114;2023-12-29T06:03:00;987;;;8.3;81.9
12722;BME280;6425;50.316;8.114;2023-12-29T06:06:00;987;;;8.5;81.5
12722;BME280;6425;50.316;8.114;2023-12-29T06:09:00;987;;;8.2;83.1
12722;BME280;6425;50.316;8.114;2023-12-29T06:12:00;987;;;8.5;82.1
12722;BME280;6425;50.316;8.114;2023-12-29T06:15:00;987;;;8.4;82.6
12722;BME280;6425;50.316;8.114;2023-12-29T06:18:00;987;;;8.4;83.3
12722;BME280;6425;50.316;8.114;2023-12-29T06:21:01;986;;;8.5;82.5
12722;BME280;6425;50.316;8.114;2023-12-29T06:24:00;987;;;8.3;83.5
12722;BME280;6425;50.316;8.114;2023-12-29T06:27:02;987;;;8.3;83.9
12722;BME280;6425;50.316;8.114;2023-12-29T06:30:00;987;;;8.4;83.4
12722;BME280;6425;50.316;8.114;2023-12-29T06:33:00;987;;;8.5;83.2
12722;BME280;6425;50.316;8.114;2023-12-29T06:36:00;987;;;8.4;83.5
12722;BME280;6425;50.316;8.114;2023-12-29T06:39:00;986;;;8.5;83.7
12722;BME280;6425;50.316;8.114;2023-12-29T06:42:00;986;;;8.4;84.3
12722;BME280;6425;50.316;8.114;2023-12-29T06:45:00;987;;;8.4;84.7
12722;BME280;6425;50.316;8.114;2023-12-29T06:48:00;987;;;8.5;84.4
12722;BME280;6425;50.316;8.114;2023-12-29T06:51:01;987;;;8.6;83.9
12722;BME280;6425;50.316;8.114;2023-12-29T06:54:00;987;;;8.5;84.4
12722;BME280;6425;50.316;8.114;2023-12-29T06:57:00;987;;;8.6;84.6
12722;BME280;6425;50.316;8.114;2023-12-29T07:00:00;987;;;8.5;85.2
12722;BME280;6425;50.316;8.114;2023-12-29T07:03:00;987;;;8.6;84.3
12722;BME280;6425;50.316;8.114;2023-12-29T07:06:00;987;;;8.6;84.9
12722;BME280;6425;50.316;8.114;2023-12-29T07:09:00;987;;;8.5;85.1
12722;BME280;6425;50.316;8.114;2023-12-29T07:12:00;987;;;8.6;84.8
12722;BME280;6425;50.316;8.114;2023-12-29T07:15:00;987;;;8.7;84
12722;BME280;6425;50.316;8.114;2023-12-29T07:18:00;987;;;8.7;84.3
12722;BME280;6425;50.316;8.114;2023-12-29T07:21:00;987;;;8.7;84.3
12722;BME280;6425;50.316;8.114;2023-12-29T07:24:00;987;;;8.7;84.7
12722;BME280;6425;50.316;8.114;2023-12-29T07:27:00;987;;;8.6;85.1
12722;BME280;6425;50.316;8.114;2023-12-29T07:30:00;987;;;8.6;86
12722;BME280;6425;50.316;8.114;2023-12-29T07:33:00;987;;;8.7;85.3
12722;BME280;6425;50.316;8.114;2023-12-29T07:36:00;987;;;8.7;85.3
12722;BME280;6425;50.316;8.114;2023-12-29T07:39:00;987;;;8.7;85.2
12722;BME280;6425;50.316;8.114;2023-12-29T07:42:00;987;;;8.6;85.9
12722;BME280;6425;50.316;8.114;2023-12-29T07:45:00;987;;;8.7;85.6
12722;BME280;6425;50.316;8.114;2023-12-29T07:48:01;987;;;8.7;85.5
12722;BME280;6425;50.316;8.114;2023-12-29T07:51:04;987;;;8.8;85.7
12722;BME280;6425;50.316;8.114;2023-12-29T07:54:00;987;;;8.8;85
12722;BME280;6425;50.316;8.114;2023-12-29T07:57:00;987;;;8.7;85.6
12722;BME280;6425;50.316;8.114;2023-12-29T08:00:00;987;;;8.8;85.4
12722;BME280;6425;50.316;8.114;2023-12-29T08:03:00;987;;;8.9;84.4
12722;BME280;6425;50.316;8.114;2023-12-29T08:06:00;987;;;8.9;84.6
12722;BME280;6425;50.316;8.114;2023-12-29T08:09:00;987;;;8.9;85.3
12722;BME280;6425;50.316;8.114;2023-12-29T08:12:00;987;;;8.8;85.4
12722;BME280;6425;50.316;8.114;2023-12-29T08:15:00;987;;;9;84.7
12722;BME280;6425;50.316;8.114;2023-12-29T08:18:00;987;;;9;84
12722;BME280;6425;50.316;8.114;2023-12-29T08:21:00;987;;;9;83.9
12722;BME280;6425;50.316;8.114;2023-12-29T08:24:00;987;;;9;84.4
12722;BME280;6425;50.316;8.114;2023-12-29T08:27:00;987;;;9;84.8
12722;BME280;6425;50.316;8.114;2023-12-29T08:30:00;987;;;9.1;83.9
12722;BME280;6425;50.316;8.114;2023-12-29T08:33:00;987;;;8.9;84.8
12722;BME280;6425;50.316;8.114;2023-12-29T08:36:01;987;;;8.9;84.6
12722;BME280;6425;50.316;8.114;2023-12-29T08:39:00;987;;;8.9;84.6
12722;BME280;6425;50.316;8.114;2023-12-29T08:42:00;987;;;8.9;84.9
12722;BME280;6425;50.316;8.114;2023-12-29T08:45:00;987;;;8.9;84.9
12722;BME280;6425;50.316;8.114;2023-12-29T08:48:00;987;;;8.9;84.7
12722;BME280;6425;50.316;8.114;2023-12-29T08:51:00;987;;;9;85
12722;BME280;6425;50.316;8.114;2023-12-29T08:54:00;987;;;9;85.1
12722;BME280;6425;50.316;8.114;2023-12-29T08:57:00;987;;;9;84.9
12722;BME280;6425;50.316;8.114;2023-12-29T09:00:00;987;;;8.9;85.4
12722;BME280;6425;50.316;8.114;2023-12-29T09:03:00;987;;;8.9;86
12722;BME280;6425;50.316;8.114;2023-12-29T09:06:00;987;;;9;85
12722;BME280;6425;50.316;8.114;2023-12-29T09:09:00;986;;;9.1;84.8
12722;BME280;6425;50.316;8.114;2023-12-29T09:12:00;986;;;9.2;84.1
12722;BME280;6425;50.316;8.114;2023-12-29T09:15:00;987;;;9.2;83.7
12722;BME280;6425;50.316;8.114;2023-12-29T09:18:00;987;;;9.1;84.6
12722;BME280;6425;50.316;8.114;2023-12-29T09:21:00;987;;;9.1;84.9
12722;BME280;6425;50.316;8.114;2023-12-29T09:24:00;987;;;9.2;83.7
12722;BME280;6425;50.316;8.114;2023-12-29T09:27:00;987;;;9.2;84.3
12722;BME280;6425;50.316;8.114;2023-12-29T09:30:00;987;;;9.1;84.3
12722;BME280;6425;50.316;8.114;2023-12-29T09:33:00;987;;;9.2;84.9
12722;BME280;6425;50.316;8.114;2023-12-29T09:36:00;987;;;9.1;84.6
12722;BME280;6425;50.316;8.114;2023-12-29T09:39:01;987;;;9.1;85.4
12722;BME280;6425;50.316;8.114;2023-12-29T09:42:00;987;;;9.1;84.8
12722;BME280;6425;50.316;8.114;2023-12-29T09:45:00;987;;;9.1;85.4
12722;BME280;6425;50.316;8.114;2023-12-29T09:48:00;987;;;9.1;84.6
12722;BME280;6425;50.316;8.114;2023-12-29T09:51:00;987;;;9.3;83.6
12722;BME280;6425;50.316;8.114;2023-12-29T09:54:00;986;;;9.2;84.4
12722;BME280;6425;50.316;8.114;2023-12-29T09:57:00;987;;;9.1;85
12722;BME280;6425;50.316;8.114;2023-12-29T10:00:00;987;;;9.1;85
12722;BME280;6425;50.316;8.114;2023-12-29T10:03:00;987;;;9.1;85.1
12722;BME280;6425;50.316;8.114;2023-12-29T10:06:00;987;;;9.1;85.7
12722;BME280;6425;50.316;8.114;2023-12-29T10:09:00;987;;;9.1;85.9
12722;BME280;6425;50.316;8.114;2023-12-29T10:12:00;987;;;9.2;85.2
12722;BME280;6425;50.316;8.114;2023-12-29T10:15:03;987;;;9.2;85.2
12722;BME280;6425;50.316;8.114;2023-12-29T10:18:01;987;;;9.1;86
12722;BME280;6425;50.316;8.114;2023-12-29T10:21:01;987;;;9.2;85.5
12722;BME280;6425;50.316;8.114;2023-12-29T10:24:03;987;;;9.2;85.1
12722;BME280;6425;50.316;8.114;2023-12-29T10:27:00;987;;;9.2;85.6
12722;BME280;6425;50.316;8.114;2023-12-29T10:30:00;987;;;9.1;86.4
12722;BME280;6425;50.316;8.114;2023-12-29T10:33:00;987;;;9.2;85.7
12722;BME280;6425;50.316;8.114;2023-12-29T10:36:02;987;;;9.2;86.2
12722;BME280;6425;50.316;8.114;2023-12-29T10:39:05;987;;;9.2;86.1
12722;BME280;6425;50.316;8.114;2023-12-29T10:42:03;987;;;9.2;86.2
12722;BME280;6425;50.316;8.114;2023-12-29T10:45:08;987;;;9.1;86.2
12722;BME280;6425;50.316;8.114;2023-12-29T10:48:00;987;;;9.1;87.8
12722;BME280;6425;50.316;8.114;2023-12-29T10:51:00;987;;;9.2;87.5
12722;BME280;6425;50.316;8.114;2023-12-29T10:54:00;987;;;9.2;88
12722;BME280;6425;50.316;8.114;2023-12-29T10:57:00;987;;;9.2;87.5
12722;BME280;6425;50.316;8.114;2023-12-29T11:00:00;987;;;9.2;87.4
12722;BME280;6425;50.316;8.114;2023-12-29T11:03:00;987;;;9.3;88.3
12722;BME280;6425;50.316;8.114;2023-12-29T11:06:00;987;;;9.2;88.2
12722;BME280;6425;50.316;8.114;2023-12-29T11:09:00;987;;;9.2;88.2
12722;BME280;6425;50.316;8.114;2023-12-29T11:12:01;987;;;9.3;88.1
12722;BME280;6425;50.316;8.114;2023-12-29T11:15:00;987;;;9.3;86.5
12722;BME280;6425;50.316;8.114;2023-12-29T11:18:01;987;;;9.3;86.7
12722;BME280;6425;50.316;8.114;2023-12-29T11:21:00;987;;;9.3;87
12722;BME280;6425;50.316;8.114;2023-12-29T11:24:00;987;;;9.4;85.8
12722;BME280;6425;50.316;8.114;2023-12-29T11:27:00;986;;;9.5;84.2
12722;BME280;6425;50.316;8.114;2023-12-29T11:30:00;987;;;9.5;85.3
12722;BME280;6425;50.316;8.114;2023-12-29T11:33:01;986;;;9.5;84.7
12722;BME280;6425;50.316;8.114;2023-12-29T11:36:00;986;;;9.5;84.2
12722;BME280;6425;50.316;8.114;2023-12-29T11:39:02;986;;;9.4;85.1
12722;BME280;6425;50.316;8.114;2023-12-29T11:42:02;986;;;9.4;84.8
12722;BME280;6425;50.316;8.114;2023-12-29T11:45:02;986;;;9.5;84.7
12722;BME280;6425;50.316;8.114;2023-12-29T11:48:00;986;;;9.6;83.7
12722;BME280;6425;50.316;8.114;2023-12-29T11:51:00;986;;;9.5;84.6
12722;BME280;6425;50.316;8.114;2023-12-29T11:54:00;986;;;9.4;84
12722;BME280;6425;50.316;8.114;2023-12-29T11:57:00;986;;;9.4;84.2
12722;BME280;6425;50.316;8.114;2023-12-29T12:00:00;986;;;9.5;83.7
12722;BME280;6425;50.316;8.114;2023-12-29T12:03:00;986;;;9.6;83.7
12722;BME280;6425;50.316;8.114;2023-12-29T12:06:00;986;;;9.6;82.5
12722;BME280;6425;50.316;8.114;2023-12-29T12:09:15;986;;;9.8;82.5
12722;BME280;6425;50.316;8.114;2023-12-29T12:12:00;986;;;9.8;82
12722;BME280;6425;50.316;8.114;2023-12-29T12:15:00;986;;;9.7;81.7
12722;BME280;6425;50.316;8.114;2023-12-29T12:18:00;987;;;9.6;83.4
12722;BME280;6425;50.316;8.114;2023-12-29T12:21:00;986;;;9.6;82.5
12722;BME280;6425;50.316;8.114;2023-12-29T12:24:00;986;;;9.5;83.6
12722;BME280;6425;50.316;8.114;2023-12-29T12:27:00;986;;;9.6;82.9
12722;BME280;6425;50.316;8.114;2023-12-29T12:30:00;986;;;9.5;84.4
12722;BME280;6425;50.316;8.114;2023-12-29T12:33:00;986;;;9.6;83.6
12722;BME280;6425;50.316;8.114;2023-12-29T12:36:00;986;;;9.4;84.6
12722;BME280;6425;50.316;8.114;2023-12-29T12:39:00;986;;;9.5;84.7
12722;BME280;6425;50.316;8.114;2023-12-29T12:42:00;986;;;9.5;84.2
12722;BME280;6425;50.316;8.114;2023-12-29T12:45:03;986;;;9.5;83.7
12722;BME280;6425;50.316;8.114;2023-12-29T12:48:00;986;;;9.5;85.3
12722;BME280;6425;50.316;8.114;2023-12-29T12:51:00;986;;;9.4;85.9
12722;BME280;6425;50.316;8.114;2023-12-29T12:54:00;986;;;9.3;85.6
12722;BME280;6425;50.316;8.114;2023-12-29T12:57:00;986;;;9.4;84.8
12722;BME280;6425;50.316;8.114;2023-12-29T13:00:00;986;;;9.4;85.1
12722;BME280;6425;50.316;8.114;2023-12-29T13:03:00;986;;;9.4;84.4
12722;BME280;6425;50.316;8.114;2023-12-29T13:06:00;986;;;9.3;85.5
12722;BME280;6425;50.316;8.114;2023-12-29T13:09:00;986;;;9.2;86.4
12722;BME280;6425;50.316;8.114;2023-12-29T13:12:07;986;;;9.3;85.4
12722;BME280;6425;50.316;8.114;2023-12-29T13:15:05;986;;;9.3;86.3
12722;BME280;6425;50.316;8.114;2023-12-29T13:18:00;986;;;9.3;86.6
12722;BME280;6425;50.316;8.114;2023-12-29T13:21:00;986;;;9.1;87.8
12722;BME280;6425;50.316;8.114;2023-12-29T13:24:02;986;;;9.2;87.6
12722;BME280;6425;50.316;8.114;2023-12-29T13:27:02;986;;;9.2;87.3
12722;BME280;6425;50.316;8.114;2023-12-29T13:30:00;986;;;9.2;87.2
12722;BME280;6425;50.316;8.114;2023-12-29T13:33:00;986;;;9.2;86.9
12722;BME280;6425;50.316;8.114;2023-12-29T13:36:03;986;;;9.3;87.4
12722;BME280;6425;50.316;8.114;2023-12-29T13:39:05;986;;;9.4;86.9
12722;BME280;6425;50.316;8.114;2023-12-29T13:42:00;986;;;9.4;85.5
12722;BME280;6425;50.316;8.114;2023-12-29T13:45:00;986;;;9.3;86.3
12722;BME280;6425;50.316;8.114;2023-12-29T13:48:00;986;;;9.4;86.8
12722;BME280;6425;50.316;8.114;2023-12-29T13:51:00;986;;;9.4;86.3
12722;BME280;6425;50.316;8.114;2023-12-29T13:54:00;986;;;9.4;85.9
12722;BME280;6425;50.316;8.114;2023-12-29T13:57:00;986;;;9.4;86.8
12722;BME280;6425;50.316;8.114;2023-12-29T14:00:13;986;;;9.4;86.3
12722;BME280;6425;50.316;8.114;2023-12-29T14:03:01;986;;;9.3;86.5
12722;BME280;6425;50.316;8.114;2023-12-29T14:06:03;986;;;9.3;86.9
12722;BME280;6425;50.316;8.114;2023-12-29T14:09:00;986;;;9.3;86.9
12722;BME280;6425;50.316;8.114;2023-12-29T14:12:00;986;;;9.4;86.9
12722;BME280;6425;50.316;8.114;2023-12-29T14:15:02;986;;;9.3;87.2
12722;BME280;6425;50.316;8.114;2023-12-29T14:18:00;986;;;9.4;86.4
12722;BME280;6425;50.316;8.114;2023-12-29T14:21:00;986;;;9.3;86.2
12722;BME280;6425;50.316;8.114;2023-12-29T14:24:01;986;;;9.3;85.8
12722;BME280;6425;50.316;8.114;2023-12-29T14:27:00;986;;;9.4;86.4
12722;BME280;6425;50.316;8.114;2023-12-29T14:30:00;986;;;9.3;86.4
12722;BME280;6425;50.316;8.114;2023-12-29T14:33:00;986;;;9.3;86.2
12722;BME280;6425;50.316;8.114;2023-12-29T14:36:00;986;;;9.3;86.6
12722;BME280;6425;50.316;8.114;2023-12-29T14:39:00;986;;;9.4;85.1
12722;BME280;6425;50.316;8.114;2023-12-29T14:42:00;986;;;9.3;85.3
12722;BME280;6425;50.316;8.114;2023-12-29T14:45:00;986;;;9.2;86.3
12722;BME280;6425;50.316;8.114;2023-12-29T14:48:00;986;;;9.2;86.7
12722;BME280;6425;50.316;8.114;2023-12-29T14:51:00;986;;;9.2;86.9
12722;BME280;6425;50.316;8.114;2023-12-29T14:54:00;986;;;9.1;87.4
12722;BME280;6425;50.316;8.114;2023-12-29T14:57:00;986;;;9;88.7
12722;BME280;6425;50.316;8.114;2023-12-29T15:00:00;986;;;9;89.4
12722;BME280;6425;50.316;8.114;2023-12-29T15:03:00;986;;;9;89.1
12722;BME280;6425;50.316;8.114;2023-12-29T15:06:01;986;;;9;89.3
12722;BME280;6425;50.316;8.114;2023-12-29T15:09:00;986;;;8.9;90.3
12722;BME280;6425;50.316;8.114;2023-12-29T15:12:00;986;;;8.9;90.2
12722;BME280;6425;50.316;8.114;2023-12-29T15:15:00;986;;;9;89.8
12722;BME280;6425;50.316;8.114;2023-12-29T15:18:01;986;;;9;89.9
12722;BME280;6425;50.316;8.114;2023-12-29T15:21:00;986;;;8.9;90.6
12722;BME280;6425;50.316;8.114;2023-12-29T15:24:00;986;;;8.9;91
12722;BME280;6425;50.316;8.114;2023-12-29T15:27:00;986;;;8.9;91.7
12722;BME280;6425;50.316;8.114;2023-12-29T15:30:00;986;;;8.9;91.6
12722;BME280;6425;50.316;8.114;2023-12-29T15:33:00;986;;;8.9;91.9
12722;BME280;6425;50.316;8.114;2023-12-29T15:36:00;986;;;8.8;92.2
12722;BME280;6425;50.316;8.114;2023-12-29T15:39:00;986;;;8.8;92.6
12722;BME280;6425;50.316;8.114;2023-12-29T15:42:00;986;;;8.8;92.7
12722;BME280;6425;50.316;8.114;2023-12-29T15:45:00;986;;;8.6;94.3
12722;BME280;6425;50.316;8.114;2023-12-29T15:48:00;986;;;8.7;94.7
12722;BME280;6425;50.316;8.114;2023-12-29T15:51:00;986;;;8.6;95.1
12722;BME280;6425;50.316;8.114;2023-12-29T15:54:00;986;;;8.7;94.4
12722;BME280;6425;50.316;8.114;2023-12-29T15:57:00;986;;;8.7;94.7
12722;BME280;6425;50.316;8.114;2023-12-29T16:00:00;986;;;8.7;94.4
12722;BME280;6425;50.316;8.114;2023-12-29T16:03:00;986;;;8.8;93
12722;BME280;6425;50.316;8.114;2023-12-29T16:06:00;986;;;8.8;92.8
12722;BME280;6425;50.316;8.114;2023-12-29T16:09:00;986;;;8.8;92.7
12722;BME280;6425;50.316;8.114;2023-12-29T16:12:00;986;;;8.8;92.4
12722;BME280;6425;50.316;8.114;2023-12-29T16:15:00;986;;;8.8;92.3
12722;BME280;6425;50.316;8.114;2023-12-29T16:18:00;985;;;8.8;92.4
12722;BME280;6425;50.316;8.114;2023-12-29T16:21:00;986;;;8.9;91.9
12722;BME280;6425;50.316;8.114;2023-12-29T16:24:00;985;;;8.9;92.2
12722;BME280;6425;50.316;8.114;2023-12-29T16:27:00;985;;;8.9;91.6
12722;BME280;6425;50.316;8.114;2023-12-29T16:30:00;985;;;8.9;90.9
12722;BME280;6425;50.316;8.114;2023-12-29T16:33:00;985;;;9;90.4
12722;BME280;6425;50.316;8.114;2023-12-29T16:36:00;985;;;9.2;88.3
12722;BME280;6425;50.316;8.114;2023-12-29T16:39:01;985;;;9.2;87.4
12722;BME280;6425;50.316;8.114;2023-12-29T16:42:00;985;;;9.2;87.4
12722;BME280;6425;50.316;8.114;2023-12-29T16:45:00;985;;;9.2;87.4
12722;BME280;6425;50.316;8.114;2023-12-29T16:48:00;985;;;9.2;86.8
12722;BME280;6425;50.316;8.114;2023-12-29T16:51:01;985;;;9.2;87.1
12722;BME280;6425;50.316;8.114;2023-12-29T16:54:00;985;;;9.1;87.7
12722;BME280;6425;50.316;8.114;2023-12-29T16:57:00;985;;;9.1;87.9
12722;BME280;6425;50.316;8.114;2023-12-29T17:00:00;985;;;9.1;89
12722;BME280;6425;50.316;8.114;2023-12-29T17:03:00;985;;;8.9;90.4
12722;BME280;6425;50.316;8.114;2023-12-29T17:06:00;985;;;8.9;91.5
12722;BME280;6425;50.316;8.114;2023-12-29T17:09:00;985;;;8.8;92.3
12722;BME280;6425;50.316;8.114;2023-12-29T17:12:00;985;;;8.7;93.8
12722;BME280;6425;50.316;8.114;2023-12-29T17:15:00;985;;;8.6;94.6
12722;BME280;6425;50.316;8.114;2023-12-29T17:18:00;985;;;8.8;93.1
12722;BME280;6425;50.316;8.114;2023-12-29T17:21:00;985;;;8.8;93.2
12722;BME280;6425;50.316;8.114;2023-12-29T17:24:00;985;;;8.8;92.5
12722;BME280;6425;50.316;8.114;2023-12-29T17:27:00;985;;;8.8;92.2
12722;BME280;6425;50.316;8.114;2023-12-29T17:30:00;985;;;8.9;91.3
12722;BME280;6425;50.316;8.114;2023-12-29T17:33:00;985;;;8.8;91.7
12722;BME280;6425;50.316;8.114;2023-12-29T17:36:00;985;;;8.9;91.1
12722;BME280;6425;50.316;8.114;2023-12-29T17:39:00;985;;;8.9;90.7
12722;BME280;6425;50.316;8.114;2023-12-29T17:42:00;985;;;8.8;91.3
12722;BME280;6425;50.316;8.114;2023-12-29T17:45:00;985;;;8.9;91.2
12722;BME280;6425;50.316;8.114;2023-12-29T17:48:00;985;;;8.8;91.3
12722;BME280;6425;50.316;8.114;2023-12-29T17:51:00;985;;;8.8;92.2
12722;BME280;6425;50.316;8.114;2023-12-29T17:54:00;985;;;8.7;93.1
12722;BME280;6425;50.316;8.114;2023-12-29T17:57:00;985;;;8.7;93.5
12722;BME280;6425;50.316;8.114;2023-12-29T18:00:00;986;;;8.7;93.6
12722;BME280;6425;50.316;8.114;2023-12-29T18:03:00;986;;;8.6;94.1
12722;BME280;6425;50.316;8.114;2023-12-29T18:06:02;986;;;8.7;93.9